createdAt,value
2017-08-17T00:00:42.859Z,16.9
2017-08-17T00:01:50.636Z,16.9
2017-08-17T00:02:58.113Z,16.9
2017-08-17T00:04:05.597Z,16.9
2017-08-17T00:05:13.070Z,16.8
2017-08-17T00:06:20.549Z,16.8
2017-08-17T00:07:28.329Z,16.8
2017-08-17T00:08:35.811Z,16.8
2017-08-17T00:09:43.291Z,16.7
2017-08-17T00:10:50.773Z,16.7
2017-08-17T00:11:58.266Z,16.7
2017-08-17T00:13:06.063Z,16.7
2017-08-17T00:14:13.542Z,16.7
2017-08-17T00:15:21.030Z,16.7
2017-08-17T00:16:28.511Z,16.7
2017-08-17T00:17:35.990Z,16.7
2017-08-17T00:18:43.768Z,16.7
2017-08-17T00:19:51.264Z,16.7
2017-08-17T00:20:58.423Z,16.7
2017-08-17T00:22:05.909Z,16.7
2017-08-17T00:23:13.395Z,16.7
2017-08-17T00:24:21.174Z,16.6
2017-08-17T00:25:28.652Z,16.6
2017-08-17T00:26:36.137Z,16.6
2017-08-17T00:27:43.289Z,16.6
2017-08-17T00:28:50.773Z,16.6
2017-08-17T00:29:58.554Z,16.6
2017-08-17T00:31:06.033Z,16.6
2017-08-17T00:32:13.510Z,16.5
2017-08-17T00:33:21.012Z,16.5
2017-08-17T00:34:28.489Z,16.5
2017-08-17T00:35:36.280Z,16.5
2017-08-17T00:36:43.431Z,16.5
2017-08-17T00:37:50.921Z,16.5
2017-08-17T00:38:58.405Z,16.5
2017-08-17T00:40:05.879Z,16.5
2017-08-17T00:41:13.664Z,16.5
2017-08-17T00:42:21.141Z,16.5
2017-08-17T00:43:28.626Z,16.5
2017-08-17T00:44:36.110Z,16.5
2017-08-17T00:45:43.589Z,16.5
2017-08-17T00:46:51.373Z,16.5
2017-08-17T00:47:58.850Z,16.5
2017-08-17T00:49:06.326Z,16.4
2017-08-17T00:50:13.803Z,16.4
2017-08-17T00:51:21.284Z,16.4
2017-08-17T00:52:28.736Z,16.4
2017-08-17T00:53:36.213Z,16.4
2017-08-17T00:54:43.696Z,16.5
2017-08-17T00:55:51.181Z,16.5
2017-08-17T00:56:58.660Z,16.4
2017-08-17T00:58:06.442Z,16.4
2017-08-17T00:59:13.924Z,16.4
2017-08-17T01:00:21.398Z,16.4
2017-08-17T01:01:28.873Z,16.4
2017-08-17T01:02:36.356Z,16.4
2017-08-17T01:03:43.831Z,16.4
2017-08-17T01:04:51.305Z,16.4
2017-08-17T01:05:58.460Z,16.4
2017-08-17T01:07:05.939Z,16.3
2017-08-17T01:08:13.414Z,16.4
2017-08-17T01:09:20.864Z,16.3
2017-08-17T01:10:28.338Z,16.3
2017-08-17T01:11:35.491Z,16.3
2017-08-17T01:12:42.974Z,16.3
2017-08-17T01:13:50.448Z,16.3
2017-08-17T01:14:58.239Z,16.3
2017-08-17T01:16:05.718Z,16.3
2017-08-17T01:17:13.202Z,16.3
2017-08-17T01:18:20.681Z,16.3
2017-08-17T01:19:28.158Z,16.3
2017-08-17T01:20:35.937Z,16.3
2017-08-17T01:21:43.417Z,16.3
2017-08-17T01:22:50.894Z,16.3
2017-08-17T01:23:58.046Z,16.3
2017-08-17T01:25:05.527Z,16.4
2017-08-17T01:26:12.971Z,16.4
2017-08-17T01:27:20.477Z,16.4
2017-08-17T01:28:27.955Z,16.4
2017-08-17T01:29:35.438Z,16.4
2017-08-17T01:30:42.918Z,16.4
2017-08-17T01:31:50.715Z,16.4
2017-08-17T01:32:58.417Z,16.5
2017-08-17T01:34:05.564Z,16.4
2017-08-17T01:35:13.048Z,16.4
2017-08-17T01:36:20.526Z,16.4
2017-08-17T01:37:28.300Z,16.5
2017-08-17T01:38:35.794Z,16.5
2017-08-17T01:39:43.276Z,16.5
2017-08-17T01:40:50.425Z,16.4
2017-08-17T01:41:57.907Z,16.4
2017-08-17T01:43:05.682Z,16.5
2017-08-17T01:44:13.166Z,16.5
2017-08-17T01:45:20.638Z,16.5
2017-08-17T01:46:27.791Z,16.5
2017-08-17T01:47:35.271Z,16.5
2017-08-17T01:48:43.053Z,16.5
2017-08-17T01:49:50.540Z,16.5
2017-08-17T01:50:58.021Z,16.6
2017-08-17T01:52:05.508Z,16.5
2017-08-17T01:53:12.994Z,16.5
2017-08-17T01:54:20.773Z,16.5
2017-08-17T01:55:28.250Z,16.4
2017-08-17T01:56:35.731Z,16.4
2017-08-17T01:57:43.206Z,16.4
2017-08-17T01:58:50.689Z,16.5
2017-08-17T01:59:58.466Z,16.4
2017-08-17T02:01:05.944Z,16.4
2017-08-17T02:02:12.769Z,16.4
2017-08-17T02:03:20.242Z,16.5
2017-08-17T02:04:27.384Z,16.5
2017-08-17T02:05:35.158Z,16.5
2017-08-17T02:06:42.641Z,16.5
2017-08-17T02:07:50.123Z,16.5
2017-08-17T02:08:57.274Z,16.5
2017-08-17T02:10:04.749Z,16.6
2017-08-17T02:11:12.520Z,16.5
2017-08-17T02:12:19.992Z,16.5
2017-08-17T02:13:27.143Z,16.5
2017-08-17T02:14:34.639Z,16.5
2017-08-17T02:15:42.115Z,16.5
2017-08-17T02:16:49.885Z,16.5
2017-08-17T02:17:57.376Z,16.5
2017-08-17T02:19:04.860Z,16.5
2017-08-17T02:20:12.337Z,16.5
2017-08-17T02:21:19.814Z,16.5
2017-08-17T02:22:27.592Z,16.5
2017-08-17T02:23:35.074Z,16.5
2017-08-17T02:24:42.556Z,16.5
2017-08-17T02:25:50.032Z,16.5
2017-08-17T02:26:57.510Z,16.5
2017-08-17T02:28:05.294Z,16.5
2017-08-17T02:29:12.769Z,16.5
2017-08-17T02:30:20.245Z,16.5
2017-08-17T02:31:27.724Z,16.5
2017-08-17T02:32:35.205Z,16.5
2017-08-17T02:33:57.274Z,16.5
2017-08-17T02:35:04.764Z,16.5
2017-08-17T02:36:11.923Z,16.5
2017-08-17T02:37:19.405Z,16.5
2017-08-17T02:38:26.885Z,16.5
2017-08-17T02:39:34.667Z,16.4
2017-08-17T02:40:42.150Z,16.4
2017-08-17T02:41:49.297Z,16.4
2017-08-17T02:42:56.775Z,16.4
2017-08-17T02:44:04.259Z,16.4
2017-08-17T02:45:12.044Z,16.4
2017-08-17T02:46:19.528Z,16.4
2017-08-17T02:47:27.014Z,16.4
2017-08-17T02:48:34.487Z,16.4
2017-08-17T02:49:41.984Z,16.4
2017-08-17T02:50:49.418Z,16.5
2017-08-17T02:51:56.902Z,16.4
2017-08-17T02:53:04.386Z,16.4
2017-08-17T02:54:11.865Z,16.4
2017-08-17T02:55:19.339Z,16.4
2017-08-17T02:56:26.788Z,16.4
2017-08-17T02:57:34.265Z,16.4
2017-08-17T02:58:41.739Z,16.4
2017-08-17T02:59:49.219Z,16.4
2017-08-17T03:00:56.379Z,16.4
2017-08-17T03:02:03.839Z,16.4
2017-08-17T03:03:11.313Z,16.5
2017-08-17T03:04:18.821Z,16.4
2017-08-17T03:05:26.300Z,16.5
2017-08-17T03:06:33.780Z,16.5
2017-08-17T03:07:41.559Z,16.5
2017-08-17T03:08:49.041Z,16.5
2017-08-17T03:09:56.521Z,16.5
2017-08-17T03:11:04.004Z,16.5
2017-08-17T03:12:11.485Z,16.4
2017-08-17T03:13:18.938Z,16.4
2017-08-17T03:14:26.416Z,16.4
2017-08-17T03:15:33.894Z,16.4
2017-08-17T03:16:41.378Z,16.4
2017-08-17T03:17:48.857Z,16.4
2017-08-17T03:18:56.641Z,16.4
2017-08-17T03:20:04.136Z,16.4
2017-08-17T03:21:11.619Z,16.5
2017-08-17T03:22:19.100Z,16.5
2017-08-17T03:23:26.582Z,16.5
2017-08-17T03:24:34.361Z,16.6
2017-08-17T03:25:41.834Z,16.6
2017-08-17T03:26:49.310Z,16.6
2017-08-17T03:27:56.788Z,16.6
2017-08-17T03:29:03.932Z,16.6
2017-08-17T03:30:11.383Z,16.5
2017-08-17T03:31:18.864Z,16.5
2017-08-17T03:32:26.338Z,16.5
2017-08-17T03:33:33.811Z,16.6
2017-08-17T03:34:41.290Z,16.6
2017-08-17T03:35:49.073Z,16.5
2017-08-17T03:36:56.549Z,16.5
2017-08-17T03:38:04.026Z,16.5
2017-08-17T03:39:11.178Z,16.4
2017-08-17T03:40:18.661Z,16.4
2017-08-17T03:41:26.448Z,16.4
2017-08-17T03:42:33.607Z,16.5
2017-08-17T03:43:41.098Z,16.5
2017-08-17T03:44:48.576Z,16.5
2017-08-17T03:45:56.054Z,16.5
2017-08-17T03:47:03.834Z,16.5
2017-08-17T03:48:11.318Z,16.4
2017-08-17T03:49:18.799Z,16.4
2017-08-17T03:50:26.278Z,16.4
2017-08-17T03:51:33.756Z,16.4
2017-08-17T03:52:41.541Z,16.3
2017-08-17T03:53:49.020Z,16.3
2017-08-17T03:54:56.504Z,16.3
2017-08-17T03:56:03.991Z,16.3
2017-08-17T03:57:11.473Z,16.3
2017-08-17T03:58:20.702Z,16.3
2017-08-17T03:59:28.178Z,16.2
2017-08-17T04:00:35.656Z,16.2
2017-08-17T04:01:43.147Z,16.2
2017-08-17T04:02:50.626Z,16.2
2017-08-17T04:03:58.401Z,16.1
2017-08-17T04:05:05.878Z,16.1
2017-08-17T04:06:13.416Z,16.1
2017-08-17T04:07:20.894Z,16.1
2017-08-17T04:08:28.371Z,16.1
2017-08-17T04:09:35.828Z,16.1
2017-08-17T04:10:43.306Z,16.1
2017-08-17T04:11:50.779Z,16.1
2017-08-17T04:12:58.273Z,16
2017-08-17T04:14:05.758Z,16
2017-08-17T04:15:13.215Z,16
2017-08-17T04:16:20.698Z,16
2017-08-17T04:17:28.182Z,16
2017-08-17T04:18:35.663Z,16
2017-08-17T04:19:43.146Z,16
2017-08-17T04:20:50.925Z,16
2017-08-17T04:21:58.403Z,16
2017-08-17T04:23:05.889Z,16
2017-08-17T04:24:13.363Z,16
2017-08-17T04:25:20.838Z,16
2017-08-17T04:26:28.612Z,16
2017-08-17T04:27:36.087Z,16
2017-08-17T04:28:43.573Z,15.9
2017-08-17T04:29:51.057Z,15.9
2017-08-17T04:30:58.206Z,15.9
2017-08-17T04:32:05.334Z,15.9
2017-08-17T04:33:12.814Z,15.9
2017-08-17T04:34:19.973Z,15.9
2017-08-17T04:35:27.112Z,15.9
2017-08-17T04:36:34.617Z,15.9
2017-08-17T04:37:42.400Z,15.9
2017-08-17T04:38:49.882Z,15.9
2017-08-17T04:39:57.353Z,15.9
2017-08-17T04:41:04.832Z,15.9
2017-08-17T04:42:12.309Z,15.9
2017-08-17T04:43:19.755Z,15.9
2017-08-17T04:44:27.243Z,15.9
2017-08-17T04:45:34.724Z,16
2017-08-17T04:46:42.203Z,16
2017-08-17T04:47:49.682Z,16
2017-08-17T04:48:57.461Z,16
2017-08-17T04:50:04.937Z,16
2017-08-17T04:51:12.409Z,16
2017-08-17T04:52:19.889Z,16.1
2017-08-17T04:53:27.369Z,16
2017-08-17T04:54:34.849Z,16.1
2017-08-17T04:55:42.328Z,16.1
2017-08-17T04:57:04.393Z,16.1
2017-08-17T04:58:11.873Z,16.1
2017-08-17T04:59:19.656Z,16
2017-08-17T05:00:27.137Z,16
2017-08-17T05:01:34.619Z,16
2017-08-17T05:02:42.098Z,16.1
2017-08-17T05:03:49.577Z,16.1
2017-08-17T05:04:57.063Z,16.1
2017-08-17T05:06:04.545Z,16.1
2017-08-17T05:07:12.052Z,16.1
2017-08-17T05:08:19.528Z,16.1
2017-08-17T05:09:27.008Z,16.1
2017-08-17T05:10:34.784Z,16.1
2017-08-17T05:11:41.936Z,16.1
2017-08-17T05:12:49.097Z,16.1
2017-08-17T05:13:56.570Z,16.1
2017-08-17T05:15:04.056Z,16.2
2017-08-17T05:16:11.889Z,16.2
2017-08-17T05:17:19.369Z,16.2
2017-08-17T05:18:26.519Z,16.2
2017-08-17T05:19:33.669Z,16.2
2017-08-17T05:20:41.154Z,16.2
2017-08-17T05:21:48.935Z,16.2
2017-08-17T05:22:56.080Z,16.2
2017-08-17T05:24:03.568Z,16.2
2017-08-17T05:25:11.049Z,16.3
2017-08-17T05:26:18.524Z,16.3
2017-08-17T05:27:26.002Z,16.3
2017-08-17T05:28:33.156Z,16.3
2017-08-17T05:29:40.300Z,16.4
2017-08-17T05:30:47.772Z,16.4
2017-08-17T05:31:55.249Z,16.4
2017-08-17T05:33:03.026Z,16.4
2017-08-17T05:34:10.509Z,16.4
2017-08-17T05:35:17.657Z,16.5
2017-08-17T05:36:25.143Z,16.5
2017-08-17T05:37:32.284Z,16.5
2017-08-17T05:38:40.111Z,16.5
2017-08-17T05:39:47.591Z,16.6
2017-08-17T05:40:54.748Z,16.6
2017-08-17T05:42:02.228Z,16.7
2017-08-17T05:43:09.707Z,16.7
2017-08-17T05:44:17.484Z,16.7
2017-08-17T05:45:24.962Z,16.8
2017-08-17T05:46:32.434Z,16.8
2017-08-17T05:47:39.917Z,16.8
2017-08-17T05:48:47.392Z,16.8
2017-08-17T05:49:55.175Z,16.8
2017-08-17T05:51:02.655Z,16.8
2017-08-17T05:52:10.138Z,16.9
2017-08-17T05:53:17.613Z,16.9
2017-08-17T05:54:25.091Z,16.9
2017-08-17T05:55:32.872Z,17
2017-08-17T05:56:40.348Z,17
2017-08-17T05:57:47.828Z,17
2017-08-17T05:58:55.008Z,17.1
2017-08-17T06:00:02.487Z,17.1
2017-08-17T06:01:10.280Z,17.1
2017-08-17T06:02:17.112Z,17.2
2017-08-17T06:03:24.272Z,17.2
2017-08-17T06:04:31.768Z,17.3
2017-08-17T06:05:39.244Z,17.3
2017-08-17T06:06:47.020Z,17.4
2017-08-17T06:07:54.519Z,17.4
2017-08-17T06:09:01.987Z,17.5
2017-08-17T06:10:09.128Z,17.6
2017-08-17T06:11:16.605Z,17.6
2017-08-17T06:12:24.388Z,17.7
2017-08-17T06:13:31.868Z,17.8
2017-08-17T06:14:39.349Z,17.9
2017-08-17T06:15:46.829Z,18
2017-08-17T06:16:54.310Z,18.1
2017-08-17T06:18:02.145Z,18.2
2017-08-17T06:19:09.623Z,18.3
2017-08-17T06:20:17.110Z,18.3
2017-08-17T06:21:24.592Z,18.1
2017-08-17T06:22:32.076Z,18.1
2017-08-17T06:23:39.849Z,18.1
2017-08-17T06:24:47.333Z,18.2
2017-08-17T06:25:54.810Z,18.3
2017-08-17T06:27:02.294Z,18.2
2017-08-17T06:28:09.775Z,18.3
2017-08-17T06:29:17.550Z,18.4
2017-08-17T06:30:25.030Z,18.6
2017-08-17T06:31:32.506Z,18.6
2017-08-17T06:32:39.986Z,18.6
2017-08-17T06:33:47.132Z,18.6
2017-08-17T06:34:54.910Z,18.6
2017-08-17T06:36:02.388Z,18.6
2017-08-17T06:37:09.875Z,18.7
2017-08-17T06:38:17.352Z,18.8
2017-08-17T06:39:24.836Z,18.9
2017-08-17T06:40:32.612Z,18.9
2017-08-17T06:41:40.097Z,19
2017-08-17T06:42:47.573Z,19.2
2017-08-17T06:43:54.730Z,19.3
2017-08-17T06:45:01.877Z,19.5
2017-08-17T06:46:09.656Z,19.7
2017-08-17T06:47:17.146Z,19.9
2017-08-17T06:48:24.621Z,20
2017-08-17T06:49:31.765Z,20.2
2017-08-17T06:50:39.241Z,20.4
2017-08-17T06:51:47.021Z,20.7
2017-08-17T06:52:54.496Z,20.7
2017-08-17T06:54:01.979Z,20.8
2017-08-17T06:55:09.478Z,20.8
2017-08-17T06:56:16.954Z,21
2017-08-17T06:57:24.741Z,21.1
2017-08-17T06:58:32.221Z,21.2
2017-08-17T06:59:39.380Z,21.2
2017-08-17T07:00:46.860Z,21.4
2017-08-17T07:01:54.354Z,21.6
2017-08-17T07:03:02.140Z,21.9
2017-08-17T07:04:09.624Z,22.1
2017-08-17T07:05:16.782Z,22.1
2017-08-17T07:06:23.931Z,22.2
2017-08-17T07:07:31.075Z,22.2
2017-08-17T07:08:38.854Z,22.1
2017-08-17T07:09:46.337Z,22.1
2017-08-17T07:10:53.511Z,22.2
2017-08-17T07:12:00.985Z,22.3
2017-08-17T07:13:08.465Z,22.3
2017-08-17T07:14:16.247Z,22.3
2017-08-17T07:15:23.738Z,22.4
2017-08-17T07:16:30.883Z,22.5
2017-08-17T07:17:38.369Z,22.6
2017-08-17T07:18:45.523Z,22.7
2017-08-17T07:19:53.301Z,22.8
2017-08-17T07:21:00.781Z,22.9
2017-08-17T07:22:08.271Z,23
2017-08-17T07:23:15.418Z,23.1
2017-08-17T07:24:22.572Z,23
2017-08-17T07:25:30.047Z,23
2017-08-17T07:26:37.194Z,23.1
2017-08-17T07:27:44.676Z,23.1
2017-08-17T07:28:52.158Z,23
2017-08-17T07:29:59.640Z,23.1
2017-08-17T07:31:06.764Z,23
2017-08-17T07:32:14.248Z,23
2017-08-17T07:33:21.736Z,23
2017-08-17T07:34:29.222Z,23.2
2017-08-17T07:35:36.704Z,23.2
2017-08-17T07:36:44.156Z,23.3
2017-08-17T07:37:51.636Z,23.2
2017-08-17T07:38:59.126Z,23.4
2017-08-17T07:40:06.608Z,23.6
2017-08-17T07:41:14.096Z,23.6
2017-08-17T07:42:21.879Z,23.7
2017-08-17T07:43:29.369Z,23.3
2017-08-17T07:44:36.854Z,23.3
2017-08-17T07:45:44.336Z,23.6
2017-08-17T07:46:51.822Z,23.9
2017-08-17T07:47:59.272Z,23.9
2017-08-17T07:49:06.767Z,24.1
2017-08-17T07:50:14.272Z,24.4
2017-08-17T07:51:21.757Z,24.6
2017-08-17T07:52:29.241Z,24.3
2017-08-17T07:53:36.722Z,24.3
2017-08-17T07:54:44.203Z,24.2
2017-08-17T07:55:52.037Z,24.1
2017-08-17T07:56:59.516Z,24.1
2017-08-17T07:58:06.664Z,24.1
2017-08-17T07:59:14.156Z,24.2
2017-08-17T08:00:21.644Z,24.4
2017-08-17T08:01:29.477Z,24.4
2017-08-17T08:02:36.302Z,24.2
2017-08-17T08:03:43.787Z,24.2
2017-08-17T08:04:51.278Z,24.4
2017-08-17T08:05:58.781Z,24.2
2017-08-17T08:07:06.616Z,24.3
2017-08-17T08:08:14.102Z,24.4
2017-08-17T08:09:21.581Z,24.5
2017-08-17T08:10:29.064Z,24.5
2017-08-17T08:11:36.224Z,24.7
2017-08-17T08:12:43.709Z,24.9
2017-08-17T08:13:51.199Z,25
2017-08-17T08:14:58.694Z,24.9
2017-08-17T08:16:06.179Z,25.1
2017-08-17T08:17:13.665Z,25.1
2017-08-17T08:18:21.452Z,25
2017-08-17T08:19:28.935Z,25
2017-08-17T08:20:36.442Z,25.2
2017-08-17T08:21:43.930Z,25.4
2017-08-17T08:22:51.418Z,25.4
2017-08-17T08:23:59.203Z,25.4
2017-08-17T08:25:06.689Z,25.4
2017-08-17T08:26:14.178Z,25.6
2017-08-17T08:27:21.333Z,25.8
2017-08-17T08:28:28.815Z,26
2017-08-17T08:29:35.972Z,26.1
2017-08-17T08:30:43.453Z,26.1
2017-08-17T08:31:50.937Z,26.1
2017-08-17T08:32:58.423Z,26.1
2017-08-17T08:34:05.921Z,26
2017-08-17T08:35:13.778Z,26.1
2017-08-17T08:36:21.265Z,26
2017-08-17T08:37:28.754Z,25.4
2017-08-17T08:38:36.234Z,25.4
2017-08-17T08:39:43.394Z,25.5
2017-08-17T08:40:50.903Z,25.7
2017-08-17T08:41:58.386Z,26
2017-08-17T08:43:05.863Z,26.1
2017-08-17T08:44:13.362Z,26.1
2017-08-17T08:45:20.844Z,26.3
2017-08-17T08:46:28.679Z,26.2
2017-08-17T08:47:36.162Z,26.3
2017-08-17T08:48:43.319Z,26.2
2017-08-17T08:49:50.474Z,26.3
2017-08-17T08:50:57.965Z,26.4
2017-08-17T08:52:05.447Z,26.5
2017-08-17T08:53:12.931Z,26.6
2017-08-17T08:54:20.414Z,26.5
2017-08-17T08:55:27.916Z,26.4
2017-08-17T08:56:35.406Z,26.6
2017-08-17T08:57:43.192Z,26.7
2017-08-17T08:58:50.680Z,26.8
2017-08-17T08:59:58.171Z,27.1
2017-08-17T09:01:05.658Z,27.3
2017-08-17T09:02:13.140Z,27.1
2017-08-17T09:03:20.652Z,26.6
2017-08-17T09:04:28.138Z,26.4
2017-08-17T09:05:35.628Z,26.7
2017-08-17T09:06:43.114Z,26.7
2017-08-17T09:07:50.596Z,26.7
2017-08-17T09:08:58.089Z,26.7
2017-08-17T09:10:05.576Z,26.9
2017-08-17T09:11:13.062Z,26.9
2017-08-17T09:12:20.545Z,26.9
2017-08-17T09:13:28.034Z,26.7
2017-08-17T09:14:35.871Z,26.7
2017-08-17T09:15:43.359Z,26.7
2017-08-17T09:16:50.538Z,26.3
2017-08-17T09:17:58.029Z,26.3
2017-08-17T09:19:05.187Z,26.4
2017-08-17T09:20:12.706Z,26.4
2017-08-17T09:21:20.193Z,26.4
2017-08-17T09:22:27.677Z,26.4
2017-08-17T09:23:35.173Z,26.6
2017-08-17T09:24:42.659Z,26.7
2017-08-17T09:25:50.493Z,26.4
2017-08-17T09:26:57.975Z,26.3
2017-08-17T09:28:05.467Z,26.2
2017-08-17T09:29:12.955Z,26.4
2017-08-17T09:30:20.441Z,26.6
2017-08-17T09:31:27.934Z,26.8
2017-08-17T09:32:35.417Z,26.8
2017-08-17T09:33:42.898Z,26.7
2017-08-17T09:34:50.383Z,26.8
2017-08-17T09:35:57.873Z,26.8
2017-08-17T09:37:05.723Z,27
2017-08-17T09:38:12.880Z,27.3
2017-08-17T09:39:20.369Z,27.5
2017-08-17T09:40:27.867Z,27.7
2017-08-17T09:41:35.355Z,27.6
2017-08-17T09:42:43.184Z,27
2017-08-17T09:43:50.679Z,26.7
2017-08-17T09:44:58.177Z,26.6
2017-08-17T09:46:05.666Z,26.8
2017-08-17T09:47:13.152Z,26.9
2017-08-17T09:48:20.570Z,27
2017-08-17T09:49:28.094Z,27.1
2017-08-17T09:50:35.580Z,27.2
2017-08-17T09:51:43.065Z,27.4
2017-08-17T09:52:50.785Z,27.8
2017-08-17T09:53:58.577Z,27.9
2017-08-17T09:55:06.137Z,27.8
2017-08-17T09:56:13.618Z,27.8
2017-08-17T09:57:21.101Z,27.9
2017-08-17T09:58:28.594Z,28.1
2017-08-17T09:59:36.430Z,28.5
2017-08-17T10:00:43.919Z,28.7
2017-08-17T10:01:51.406Z,28.6
2017-08-17T10:02:58.894Z,28.3
2017-08-17T10:04:06.069Z,28.3
2017-08-17T10:05:13.898Z,28.4
2017-08-17T10:06:21.391Z,28.6
2017-08-17T10:07:28.897Z,28.6
2017-08-17T10:08:36.385Z,28.5
2017-08-17T10:09:43.538Z,28.4
2017-08-17T10:10:50.657Z,28.4
2017-08-17T10:11:58.144Z,28.2
2017-08-17T10:13:05.636Z,28.1
2017-08-17T10:14:13.131Z,28.1
2017-08-17T10:15:20.621Z,28.2
2017-08-17T10:16:28.075Z,27.8
2017-08-17T10:17:35.561Z,27.9
2017-08-17T10:18:43.047Z,28.1
2017-08-17T10:19:50.530Z,28.1
2017-08-17T10:20:58.015Z,28.1
2017-08-17T10:22:05.804Z,28.2
2017-08-17T10:23:13.291Z,27.9
2017-08-17T10:24:20.780Z,27.7
2017-08-17T10:25:27.931Z,27.7
2017-08-17T10:26:35.413Z,27.9
2017-08-17T10:27:43.200Z,28.2
2017-08-17T10:28:50.364Z,28.2
2017-08-17T10:29:57.516Z,28.1
2017-08-17T10:31:05.005Z,28
2017-08-17T10:32:12.497Z,28.3
2017-08-17T10:33:20.296Z,28.9
2017-08-17T10:34:27.796Z,29.3
2017-08-17T10:35:34.631Z,29.3
2017-08-17T10:36:42.117Z,29.5
2017-08-17T10:37:49.621Z,29.5
2017-08-17T10:38:57.116Z,29.7
2017-08-17T10:40:04.609Z,29.5
2017-08-17T10:41:12.109Z,29.4
2017-08-17T10:42:19.603Z,29.5
2017-08-17T10:43:26.757Z,29.3
2017-08-17T10:44:34.547Z,28.8
2017-08-17T10:45:42.043Z,28.7
2017-08-17T10:46:49.529Z,28.8
2017-08-17T10:47:57.013Z,29.2
2017-08-17T10:49:04.505Z,29.4
2017-08-17T10:50:12.295Z,29.3
2017-08-17T10:51:19.778Z,29.4
2017-08-17T10:52:27.266Z,29.2
2017-08-17T10:53:34.758Z,29.2
2017-08-17T10:54:42.246Z,29.1
2017-08-17T10:55:49.411Z,29.3
2017-08-17T10:56:56.915Z,29.1
2017-08-17T10:58:04.404Z,28.9
2017-08-17T10:59:11.894Z,28.9
2017-08-17T11:00:19.401Z,29
2017-08-17T11:01:26.898Z,29
2017-08-17T11:02:34.391Z,29.1
2017-08-17T11:03:41.882Z,29.3
2017-08-17T11:04:49.369Z,29
2017-08-17T11:05:57.204Z,29.1
2017-08-17T11:07:04.697Z,29.3
2017-08-17T11:08:12.184Z,28.7
2017-08-17T11:09:19.670Z,28.4
2017-08-17T11:10:27.152Z,28.1
2017-08-17T11:11:34.990Z,28.4
2017-08-17T11:12:42.493Z,28.4
2017-08-17T11:13:49.653Z,28.6
2017-08-17T11:14:56.769Z,28.6
2017-08-17T11:16:04.257Z,28.8
2017-08-17T11:17:12.144Z,29.1
2017-08-17T11:18:19.309Z,29.4
2017-08-17T11:19:26.793Z,29.7
2017-08-17T11:20:34.284Z,29.7
2017-08-17T11:21:41.777Z,29.8
2017-08-17T11:22:49.240Z,29.9
2017-08-17T11:23:56.730Z,29.6
2017-08-17T11:25:04.217Z,29.2
2017-08-17T11:26:11.382Z,28.9
2017-08-17T11:27:18.540Z,28.8
2017-08-17T11:28:26.336Z,28.6
2017-08-17T11:29:33.819Z,28.7
2017-08-17T11:30:40.983Z,28.9
2017-08-17T11:31:48.473Z,28.9
2017-08-17T11:32:55.962Z,28.8
2017-08-17T11:34:03.751Z,28.6
2017-08-17T11:35:11.236Z,28.6
2017-08-17T11:36:18.721Z,28.4
2017-08-17T11:37:26.209Z,28.8
2017-08-17T11:38:33.693Z,28.9
2017-08-17T11:39:41.186Z,29.1
2017-08-17T11:40:48.679Z,29.3
2017-08-17T11:41:55.829Z,29
2017-08-17T11:43:03.322Z,29
2017-08-17T11:44:10.805Z,29.2
2017-08-17T11:45:18.257Z,29.5
2017-08-17T11:46:25.746Z,29.9
2017-08-17T11:47:33.237Z,30.2
2017-08-17T11:48:40.400Z,30
2017-08-17T11:49:47.884Z,30.1
2017-08-17T11:50:55.723Z,30
2017-08-17T11:52:03.214Z,29.7
2017-08-17T11:53:10.716Z,29.8
2017-08-17T11:54:18.206Z,29.7
2017-08-17T11:55:25.694Z,29.4
2017-08-17T11:56:33.481Z,29
2017-08-17T11:57:40.971Z,28.8
2017-08-17T11:58:48.474Z,28.9
2017-08-17T11:59:55.956Z,29.1
2017-08-17T12:01:03.073Z,29.2
2017-08-17T12:02:10.913Z,29.2
2017-08-17T12:03:18.406Z,29.4
2017-08-17T12:04:25.560Z,29.7
2017-08-17T12:05:33.047Z,29.7
2017-08-17T12:06:40.545Z,29.4
2017-08-17T12:07:48.384Z,29.3
2017-08-17T12:08:55.873Z,29.2
2017-08-17T12:10:03.366Z,29.1
2017-08-17T12:11:10.849Z,29.3
2017-08-17T12:12:18.342Z,29.5
2017-08-17T12:13:26.186Z,29.5
2017-08-17T12:14:33.672Z,29.1
2017-08-17T12:15:40.882Z,29.1
2017-08-17T12:16:48.370Z,29.3
2017-08-17T12:17:55.198Z,29.4
2017-08-17T12:19:02.696Z,29.5
2017-08-17T12:20:10.184Z,29.7
2017-08-17T12:21:17.674Z,30
2017-08-17T12:22:25.170Z,30.3
2017-08-17T12:23:32.668Z,30.3
2017-08-17T12:24:40.507Z,30.5
2017-08-17T12:25:47.999Z,30.6
2017-08-17T12:26:55.498Z,30.3
2017-08-17T12:28:02.981Z,30.3
2017-08-17T12:29:10.465Z,30.4
2017-08-17T12:30:18.303Z,30.2
2017-08-17T12:31:25.794Z,30
2017-08-17T12:32:33.288Z,30.4
2017-08-17T12:33:40.780Z,30.4
2017-08-17T12:34:48.273Z,30.6
2017-08-17T12:35:55.734Z,30.1
2017-08-17T12:37:03.226Z,30.2
2017-08-17T12:38:10.721Z,30.3
2017-08-17T12:39:18.209Z,30.4
2017-08-17T12:40:25.699Z,30.3
2017-08-17T12:41:33.494Z,30.4
2017-08-17T12:42:40.976Z,30.4
2017-08-17T12:43:48.471Z,30.3
2017-08-17T12:44:55.969Z,30.3
2017-08-17T12:46:03.456Z,30.3
2017-08-17T12:47:11.246Z,30.1
2017-08-17T12:48:18.740Z,30.1
2017-08-17T12:49:26.234Z,29.9
2017-08-17T12:50:33.392Z,29.9
2017-08-17T12:51:40.885Z,30
2017-08-17T12:52:48.676Z,30.1
2017-08-17T12:53:56.171Z,30.3
2017-08-17T12:55:03.337Z,30.5
2017-08-17T12:56:10.828Z,30.7
2017-08-17T12:57:18.323Z,30.6
2017-08-17T12:58:26.113Z,30.5
2017-08-17T12:59:33.607Z,30.2
2017-08-17T13:00:41.097Z,29.7
2017-08-17T13:01:48.584Z,29.3
2017-08-17T13:02:55.740Z,29
2017-08-17T13:04:03.534Z,29
2017-08-17T13:05:11.022Z,29.1
2017-08-17T13:06:18.516Z,29.1
2017-08-17T13:07:26.025Z,29.1
2017-08-17T13:08:33.511Z,29.1
2017-08-17T13:09:41.305Z,29.1
2017-08-17T13:10:48.795Z,29
2017-08-17T13:11:56.287Z,28.9
2017-08-17T13:13:03.777Z,28.7
2017-08-17T13:14:11.264Z,28.6
2017-08-17T13:15:18.731Z,28.5
2017-08-17T13:16:25.881Z,28.5
2017-08-17T13:17:33.403Z,28.5
2017-08-17T13:18:40.899Z,28.4
2017-08-17T13:19:48.397Z,28.3
2017-08-17T13:20:56.188Z,27.9
2017-08-17T13:22:03.676Z,27.7
2017-08-17T13:23:10.857Z,27.8
2017-08-17T13:24:18.344Z,27.8
2017-08-17T13:25:25.501Z,28
2017-08-17T13:26:32.959Z,28
2017-08-17T13:27:40.454Z,28
2017-08-17T13:28:47.614Z,27.9
2017-08-17T13:29:54.777Z,28
2017-08-17T13:31:01.934Z,28.2
2017-08-17T13:32:09.405Z,27.8
2017-08-17T13:33:16.890Z,28
2017-08-17T13:34:24.380Z,28.4
2017-08-17T13:35:31.865Z,29
2017-08-17T13:36:39.352Z,29.5
2017-08-17T13:37:47.141Z,29.4
2017-08-17T13:38:54.305Z,29
2017-08-17T13:40:01.467Z,28.7
2017-08-17T13:41:08.962Z,28.4
2017-08-17T13:42:16.450Z,28.3
2017-08-17T13:43:23.910Z,28.5
2017-08-17T13:44:31.069Z,28.7
2017-08-17T13:45:38.564Z,29.3
2017-08-17T13:46:46.050Z,29.6
2017-08-17T13:47:53.540Z,29.5
2017-08-17T13:49:01.323Z,29.4
2017-08-17T13:50:08.482Z,29.6
2017-08-17T13:51:15.964Z,29.9
2017-08-17T13:52:23.121Z,30.2
2017-08-17T13:53:30.610Z,30.5
2017-08-17T13:54:38.398Z,29.9
2017-08-17T13:55:45.887Z,29.6
2017-08-17T13:56:53.381Z,29.6
2017-08-17T13:58:00.870Z,29.6
2017-08-17T13:59:08.357Z,29.5
2017-08-17T14:00:16.146Z,29.5
2017-08-17T14:01:23.633Z,29.6
2017-08-17T14:02:31.127Z,29.7
2017-08-17T14:03:38.620Z,29.8
2017-08-17T14:04:46.109Z,29.7
2017-08-17T14:05:53.895Z,29.9
2017-08-17T14:07:01.059Z,29.9
2017-08-17T14:08:08.549Z,30.1
2017-08-17T14:09:16.040Z,30.2
2017-08-17T14:10:23.196Z,30.1
2017-08-17T14:11:30.988Z,30.2
2017-08-17T14:12:38.471Z,30
2017-08-17T14:13:45.959Z,29.9
2017-08-17T14:14:53.450Z,29.5
2017-08-17T14:16:00.938Z,29.3
2017-08-17T14:17:08.724Z,29.5
2017-08-17T14:18:16.208Z,29.9
2017-08-17T14:19:23.694Z,30.4
2017-08-17T14:20:31.188Z,30.7
2017-08-17T14:21:38.682Z,30.7
2017-08-17T14:22:46.471Z,30.6
2017-08-17T14:23:53.959Z,30.4
2017-08-17T14:25:01.118Z,30.1
2017-08-17T14:26:08.603Z,29.9
2017-08-17T14:27:16.092Z,29.4
2017-08-17T14:28:23.878Z,29.1
2017-08-17T14:29:31.369Z,28.9
2017-08-17T14:30:38.861Z,29.2
2017-08-17T14:31:46.364Z,29.7
2017-08-17T14:32:53.854Z,30.2
2017-08-17T14:34:01.651Z,30.5
2017-08-17T14:35:09.149Z,30.6
2017-08-17T14:36:16.631Z,31
2017-08-17T14:37:24.124Z,30.9
2017-08-17T14:38:31.614Z,30.3
2017-08-17T14:39:39.410Z,29.8
2017-08-17T14:40:46.899Z,29.7
2017-08-17T14:41:54.413Z,29.6
2017-08-17T14:43:01.901Z,29.8
2017-08-17T14:44:09.058Z,29.8
2017-08-17T14:45:16.856Z,29.6
2017-08-17T14:46:24.356Z,29.5
2017-08-17T14:47:31.850Z,29.5
2017-08-17T14:48:39.341Z,29.5
2017-08-17T14:49:46.840Z,29.7
2017-08-17T14:50:54.631Z,29.8
2017-08-17T14:52:01.795Z,29.9
2017-08-17T14:53:09.296Z,29.9
2017-08-17T14:54:16.785Z,29.7
2017-08-17T14:55:24.270Z,29.5
2017-08-17T14:56:31.741Z,29.3
2017-08-17T14:57:39.231Z,29.3
2017-08-17T14:58:46.718Z,29.4
2017-08-17T14:59:54.206Z,29.6
2017-08-17T15:01:01.359Z,29.6
2017-08-17T15:02:09.144Z,29.8
2017-08-17T15:03:16.639Z,29.8
2017-08-17T15:04:24.128Z,29.7